createdAt,value
2018-12-04T00:02:17.542Z,74.90
2018-12-04T00:04:43.769Z,72.17
2018-12-04T00:07:09.937Z,90.43
2018-12-04T00:09:36.095Z,78.90
2018-12-04T00:12:02.290Z,73.77
2018-12-04T00:14:28.457Z,71.10
2018-12-04T00:16:54.594Z,64.37
2018-12-04T00:19:20.802Z,60.97
2018-12-04T00:21:46.968Z,61.53
2018-12-04T00:24:13.125Z,64.80
2018-12-04T00:26:39.329Z,73.00
2018-12-04T00:29:05.485Z,55.20
2018-12-04T00:31:31.657Z,52.23
2018-12-04T00:33:57.839Z,54.13
2018-12-04T00:36:23.997Z,56.60
2018-12-04T00:38:50.154Z,60.03
2018-12-04T00:41:16.359Z,66.40
2018-12-04T00:43:42.541Z,60.30
2018-12-04T00:46:08.697Z,79.87
2018-12-04T00:48:34.897Z,68.83
2018-12-04T00:51:01.108Z,65.70
2018-12-04T00:53:27.337Z,62.47
2018-12-04T00:55:53.549Z,50.80
2018-12-04T00:58:19.744Z,56.97
2018-12-04T01:00:45.909Z,63.20
2018-12-04T01:03:12.104Z,63.67
2018-12-04T01:05:38.274Z,59.37
2018-12-04T01:08:04.435Z,59.93
2018-12-04T01:10:30.629Z,56.67
2018-12-04T01:12:56.781Z,63.20
2018-12-04T01:15:22.941Z,68.23
2018-12-04T01:17:49.122Z,55.03
2018-12-04T01:20:15.288Z,53.40
2018-12-04T01:22:41.459Z,49.63
2018-12-04T01:25:07.660Z,50.20
2018-12-04T01:27:33.821Z,46.47
2018-12-04T01:29:59.985Z,52.20
2018-12-04T01:32:26.177Z,44.10
2018-12-04T01:34:52.346Z,48.60
2018-12-04T01:37:18.505Z,43.73
2018-12-04T01:39:44.702Z,49.43
2018-12-04T01:42:10.862Z,57.10
2018-12-04T01:47:13.363Z,51.23
2018-12-04T01:49:39.530Z,49.33
2018-12-04T01:52:05.673Z,49.70
2018-12-04T01:54:31.853Z,43.07
2018-12-04T01:56:58.049Z,46.90
2018-12-04T01:59:24.201Z,52.53
2018-12-04T02:01:50.408Z,46.47
2018-12-04T02:04:16.577Z,46.63
2018-12-04T02:06:42.753Z,49.37
2018-12-04T02:09:09.025Z,50.67
2018-12-04T02:11:35.188Z,48.77
2018-12-04T02:14:01.348Z,51.13
2018-12-04T02:16:27.544Z,44.93
2018-12-04T02:18:53.694Z,48.67
2018-12-04T02:21:19.873Z,47.50
2018-12-04T02:23:46.062Z,49.67
2018-12-04T02:26:12.234Z,50.67
2018-12-04T02:28:40.189Z,51.37
2018-12-04T02:31:06.398Z,51.57
2018-12-04T02:33:32.550Z,43.13
2018-12-04T02:35:58.706Z,47.50
2018-12-04T02:38:24.889Z,50.83
2018-12-04T02:40:51.062Z,52.40
2018-12-04T02:43:17.227Z,47.37
2018-12-04T02:45:43.413Z,52.60
2018-12-04T02:48:09.571Z,50.93
2018-12-04T02:50:35.773Z,43.27
2018-12-04T02:53:02.093Z,42.07
2018-12-04T02:55:28.273Z,45.63
2018-12-04T02:57:54.425Z,41.03
2018-12-04T03:00:20.634Z,44.80
2018-12-04T03:02:46.780Z,37.10
2018-12-04T03:05:13.091Z,37.30
2018-12-04T03:07:39.278Z,37.60
2018-12-04T03:10:05.684Z,36.67
2018-12-04T03:12:31.847Z,39.13
2018-12-04T03:14:58.029Z,40.20
2018-12-04T03:17:24.265Z,41.70
2018-12-04T03:19:50.432Z,36.87
2018-12-04T03:22:16.609Z,40.67
2018-12-04T03:24:42.758Z,43.13
2018-12-04T03:27:08.898Z,37.43
2018-12-04T03:29:35.119Z,37.30
2018-12-04T03:32:01.424Z,41.77
2018-12-04T03:34:27.584Z,35.97
2018-12-04T03:36:53.765Z,35.60
2018-12-04T03:39:19.971Z,36.47
2018-12-04T03:41:46.130Z,36.57
2018-12-04T03:44:12.318Z,47.23
2018-12-04T03:46:38.463Z,39.97
2018-12-04T03:49:04.604Z,41.53
2018-12-04T03:51:30.820Z,44.27
2018-12-04T03:53:56.971Z,43.07
2018-12-04T03:56:23.126Z,54.87
2018-12-04T03:58:49.315Z,48.20
2018-12-04T04:01:15.489Z,56.17
2018-12-04T04:03:41.813Z,56.63
2018-12-04T04:06:08.009Z,45.83
2018-12-04T04:08:34.201Z,50.10
2018-12-04T04:11:00.348Z,48.50
2018-12-04T04:13:26.542Z,52.40
2018-12-04T04:15:52.710Z,54.37
2018-12-04T04:18:18.864Z,47.10
2018-12-04T04:20:45.058Z,47.97
2018-12-04T04:23:11.206Z,40.43
2018-12-04T04:25:37.490Z,38.63
2018-12-04T04:28:03.708Z,41.00
2018-12-04T04:30:29.877Z,39.23
2018-12-04T04:32:56.033Z,53.83
2018-12-04T04:35:22.219Z,41.17
2018-12-04T04:37:48.362Z,42.97
2018-12-04T04:40:14.523Z,38.97
2018-12-04T04:42:40.784Z,36.93
2018-12-04T04:45:07.025Z,40.00
2018-12-04T04:47:33.181Z,41.10
2018-12-04T04:49:59.403Z,45.80
2018-12-04T04:52:25.550Z,42.10
2018-12-04T04:54:51.709Z,42.63
2018-12-04T04:57:18.024Z,46.03
2018-12-04T04:59:44.185Z,56.93
2018-12-04T05:02:10.351Z,58.07
2018-12-04T05:04:36.575Z,118.90
2018-12-04T05:07:02.764Z,102.73
2018-12-04T05:09:28.945Z,74.17
2018-12-04T05:11:55.153Z,49.30
2018-12-04T05:14:21.294Z,52.90
2018-12-04T05:16:47.453Z,64.30
2018-12-04T05:19:13.679Z,44.93
2018-12-04T05:21:39.830Z,43.13
2018-12-04T05:24:05.994Z,47.07
2018-12-04T05:26:32.184Z,49.63
2018-12-04T05:28:58.340Z,50.07
2018-12-04T05:31:24.497Z,46.27
2018-12-04T05:33:50.693Z,45.90
2018-12-04T05:36:16.873Z,47.30
2018-12-04T05:38:43.028Z,43.50
2018-12-04T05:41:09.265Z,42.13
2018-12-04T05:43:35.422Z,43.90
2018-12-04T05:46:01.595Z,45.03
2018-12-04T05:48:27.781Z,48.87
2018-12-04T05:50:53.934Z,45.30
2018-12-04T05:53:29.423Z,49.83
2018-12-04T05:55:55.581Z,42.73
2018-12-04T05:58:21.750Z,47.77
2018-12-04T06:00:47.962Z,47.40
2018-12-04T06:03:14.139Z,49.20
2018-12-04T06:05:40.302Z,50.60
2018-12-04T06:08:06.490Z,52.20
2018-12-04T06:10:32.669Z,54.03
2018-12-04T06:12:58.837Z,62.07
2018-12-04T06:15:25.043Z,53.87
2018-12-04T06:17:51.218Z,165.60
2018-12-04T06:20:17.387Z,62.83
2018-12-04T06:22:43.605Z,52.07
2018-12-04T06:25:09.857Z,68.00
2018-12-04T06:27:36.033Z,90.17
2018-12-04T06:30:02.358Z,69.80
2018-12-04T06:32:28.513Z,61.47
2018-12-04T06:34:54.724Z,50.97
2018-12-04T06:37:20.913Z,50.23
2018-12-04T06:39:47.065Z,46.77
2018-12-04T06:42:13.238Z,54.33
2018-12-04T06:44:39.417Z,46.90
2018-12-04T06:47:05.556Z,56.77
2018-12-04T06:49:31.705Z,128.35
2018-12-04T06:51:57.897Z,71.93
2018-12-04T06:54:24.036Z,57.20
2018-12-04T06:56:50.169Z,76.93
2018-12-04T06:59:16.357Z,60.37
2018-12-04T07:01:42.518Z,48.67
2018-12-04T07:04:08.681Z,59.07
2018-12-04T07:06:34.883Z,52.23
2018-12-04T07:09:01.050Z,56.53
2018-12-04T07:11:27.206Z,49.67
2018-12-04T07:13:53.526Z,57.37
2018-12-04T07:16:19.690Z,56.77
2018-12-04T07:18:45.841Z,55.13
2018-12-04T07:21:12.029Z,53.57
2018-12-04T07:23:38.188Z,42.77
2018-12-04T07:26:04.354Z,31.50
2018-12-04T07:28:30.553Z,30.73
2018-12-04T07:30:56.722Z,30.70
2018-12-04T07:33:22.883Z,34.03
2018-12-04T07:35:49.104Z,33.53
2018-12-04T07:38:15.265Z,35.23
2018-12-04T07:40:41.400Z,35.23
2018-12-04T07:43:07.601Z,33.23
2018-12-04T07:45:33.761Z,40.23
2018-12-04T07:47:59.922Z,41.03
2018-12-04T07:50:26.113Z,43.80
2018-12-04T07:52:52.319Z,43.27
2018-12-04T07:55:18.592Z,44.37
2018-12-04T07:57:44.777Z,42.83
2018-12-04T08:00:10.978Z,43.57
2018-12-04T08:02:37.130Z,45.83
2018-12-04T08:05:04.477Z,47.87
2018-12-04T08:07:30.633Z,49.60
2018-12-04T08:09:56.837Z,55.50
2018-12-04T08:12:23.106Z,56.20
2018-12-04T08:14:49.292Z,53.70
2018-12-04T08:17:15.466Z,74.63
2018-12-04T08:19:41.641Z,61.30
2018-12-04T08:22:07.793Z,59.40
2018-12-04T08:24:34.588Z,73.30
2018-12-04T08:27:00.998Z,57.37
2018-12-04T08:29:27.165Z,70.07
2018-12-04T08:31:53.349Z,63.63
2018-12-04T08:34:19.529Z,64.53
2018-12-04T08:36:45.689Z,70.97
2018-12-04T08:39:13.217Z,69.33
2018-12-04T08:41:39.850Z,70.63
2018-12-04T08:44:06.004Z,70.47
2018-12-04T08:46:32.161Z,69.73
2018-12-04T08:48:58.382Z,70.70
2018-12-04T08:51:24.525Z,77.43
2018-12-04T08:53:50.686Z,77.00
2018-12-04T08:56:16.876Z,84.20
2018-12-04T08:58:43.020Z,85.63
2018-12-04T09:01:09.174Z,89.40
2018-12-04T09:03:35.373Z,84.20
2018-12-04T09:06:01.554Z,86.60
2018-12-04T09:08:27.706Z,89.40
2018-12-04T09:10:53.905Z,93.73
2018-12-04T09:13:20.213Z,84.57
2018-12-04T09:15:46.353Z,85.17
2018-12-04T09:18:12.568Z,91.13
2018-12-04T09:20:38.912Z,88.63
2018-12-04T09:23:05.141Z,82.17
2018-12-04T09:25:31.480Z,82.57
2018-12-04T09:27:57.769Z,85.80
2018-12-04T09:30:24.066Z,70.07
2018-12-04T09:32:50.273Z,71.10
2018-12-04T09:35:16.442Z,70.37
2018-12-04T09:37:42.630Z,67.40
2018-12-04T09:40:08.833Z,73.27
2018-12-04T09:42:35.954Z,68.60
2018-12-04T09:45:02.141Z,73.83
2018-12-04T09:47:28.323Z,76.03
2018-12-04T09:49:54.479Z,80.97
2018-12-04T09:52:20.630Z,78.43
2018-12-04T09:54:46.800Z,74.07
2018-12-04T09:57:12.962Z,57.83
2018-12-04T09:59:39.640Z,64.73
2018-12-04T10:02:06.106Z,57.40
2018-12-04T10:04:32.271Z,50.73
2018-12-04T10:06:58.417Z,50.43
2018-12-04T10:09:24.596Z,54.20
2018-12-04T10:11:50.775Z,47.37
2018-12-04T10:14:16.945Z,46.97
2018-12-04T10:16:43.125Z,71.07
2018-12-04T10:19:09.291Z,51.90
2018-12-04T10:21:35.453Z,47.80
2018-12-04T10:24:01.657Z,44.73
2018-12-04T10:26:27.885Z,52.70
2018-12-04T10:28:54.129Z,56.00
2018-12-04T10:31:20.354Z,48.60
2018-12-04T10:33:46.527Z,50.50
2018-12-04T10:36:12.717Z,53.57
2018-12-04T10:38:38.946Z,59.97
2018-12-04T10:41:05.155Z,70.40
2018-12-04T10:43:31.360Z,60.30
2018-12-04T10:45:57.597Z,55.50
2018-12-04T10:48:23.754Z,53.77
2018-12-04T10:50:49.901Z,74.77
2018-12-04T10:53:16.120Z,55.97
2018-12-04T10:55:42.342Z,57.63
2018-12-04T10:58:08.498Z,64.00
2018-12-04T11:00:35.817Z,68.13
2018-12-04T11:03:07.128Z,68.87
2018-12-04T11:05:33.354Z,68.20
2018-12-04T11:08:01.037Z,61.07
2018-12-04T11:10:27.213Z,66.97
2018-12-04T11:12:53.414Z,69.50
2018-12-04T11:15:19.616Z,67.00
2018-12-04T11:17:45.784Z,68.07
2018-12-04T11:20:12.085Z,66.07
2018-12-04T11:22:38.275Z,68.63
2018-12-04T11:25:05.985Z,69.80
2018-12-04T11:27:32.146Z,69.30
2018-12-04T11:29:58.346Z,70.33
2018-12-04T11:32:24.485Z,78.67
2018-12-04T11:34:51.366Z,79.13
2018-12-04T11:37:17.573Z,87.10
2018-12-04T11:39:43.714Z,83.67
2018-12-04T11:42:09.896Z,87.70
2018-12-04T11:44:36.094Z,89.23
2018-12-04T11:47:02.277Z,105.13
2018-12-04T11:49:28.445Z,98.23
2018-12-04T11:51:54.663Z,96.10
2018-12-04T11:54:20.834Z,99.77
2018-12-04T11:56:47.002Z,95.03
2018-12-04T11:59:13.193Z,96.97
2018-12-04T12:01:39.374Z,99.90
2018-12-04T12:04:05.546Z,95.27
2018-12-04T12:06:31.736Z,89.83
2018-12-04T12:08:57.877Z,85.23
2018-12-04T12:11:24.037Z,86.10
2018-12-04T12:13:50.225Z,78.57
2018-12-04T12:16:16.376Z,88.57
2018-12-04T12:18:42.547Z,80.07
2018-12-04T12:21:08.734Z,74.77
2018-12-04T12:23:34.881Z,80.40
2018-12-04T12:26:01.037Z,71.63
2018-12-04T12:28:27.283Z,73.67
2018-12-04T12:30:53.452Z,75.23
2018-12-04T12:33:19.615Z,78.97
2018-12-04T12:35:45.801Z,80.10
2018-12-04T12:38:11.946Z,79.30
2018-12-04T12:40:38.191Z,78.43
2018-12-04T12:43:04.452Z,84.57
2018-12-04T12:45:30.601Z,97.17
2018-12-04T12:47:56.749Z,84.97
2018-12-04T12:50:22.962Z,87.93
2018-12-04T12:52:49.125Z,87.67
2018-12-04T12:55:15.306Z,84.33
2018-12-04T12:57:41.522Z,92.40
2018-12-04T13:00:08.665Z,89.60
2018-12-04T13:02:34.993Z,81.73
2018-12-04T13:05:01.258Z,82.90
2018-12-04T13:07:27.467Z,85.20
2018-12-04T13:09:53.650Z,86.87
2018-12-04T13:12:19.857Z,86.87
2018-12-04T13:14:46.019Z,81.67
2018-12-04T13:17:12.216Z,80.83
2018-12-04T13:19:38.406Z,89.17
2018-12-04T13:22:04.555Z,88.10
2018-12-04T13:24:30.719Z,91.33
2018-12-04T13:26:56.922Z,117.00
2018-12-04T13:29:23.078Z,70.23
2018-12-04T13:31:49.274Z,81.40
2018-12-04T13:34:15.477Z,75.03
2018-12-04T13:36:42.303Z,75.57
2018-12-04T13:39:08.915Z,83.93
2018-12-04T13:41:35.238Z,83.87
2018-12-04T13:44:01.419Z,81.77
2018-12-04T13:46:27.572Z,88.77
2018-12-04T13:48:53.758Z,80.27
2018-12-04T13:51:19.927Z,80.40
2018-12-04T13:53:46.142Z,82.70
2018-12-04T13:56:12.334Z,80.93
2018-12-04T13:58:38.494Z,95.43
2018-12-04T14:01:04.689Z,89.87
2018-12-04T14:03:30.913Z,93.73
2018-12-04T14:05:57.094Z,80.90
2018-12-04T14:08:23.277Z,82.47
2018-12-04T14:10:49.494Z,93.73
2018-12-04T14:13:15.683Z,96.00
2018-12-04T14:15:41.886Z,84.47
2018-12-04T14:18:08.131Z,81.90
2018-12-04T14:20:34.343Z,87.60
2018-12-04T14:23:00.513Z,95.13
2018-12-04T14:25:26.730Z,98.03
2018-12-04T14:27:52.890Z,93.23
2018-12-04T14:30:19.070Z,93.50
2018-12-04T14:32:45.384Z,103.57
2018-12-04T14:35:11.693Z,103.57
2018-12-04T14:37:37.890Z,98.53
2018-12-04T14:40:04.645Z,106.67
2018-12-04T14:42:30.833Z,100.60
2018-12-04T14:44:57.019Z,104.03
2018-12-04T14:47:23.213Z,97.50
2018-12-04T14:49:49.439Z,114.47
2018-12-04T14:52:15.666Z,135.57
2018-12-04T14:54:41.879Z,133.23
2018-12-04T14:57:08.068Z,135.90
2018-12-04T14:59:34.309Z,132.17
2018-12-04T15:02:00.538Z,117.43
2018-12-04T15:04:26.748Z,123.20
2018-12-04T15:06:53.038Z,110.63
2018-12-04T15:09:19.271Z,113.43
2018-12-04T15:11:45.709Z,109.33
2018-12-04T15:14:11.875Z,113.77
2018-12-04T15:16:38.078Z,120.00
2018-12-04T15:19:04.393Z,136.33
2018-12-04T15:21:30.599Z,116.07
2018-12-04T15:23:56.794Z,116.23
2018-12-04T15:26:22.941Z,115.40
2018-12-04T15:28:49.132Z,88.33
2018-12-04T15:31:15.313Z,66.97
2018-12-04T15:33:41.530Z,60.20
2018-12-04T15:36:07.794Z,61.93
2018-12-04T15:38:33.990Z,52.07
2018-12-04T15:41:09.410Z,59.60
2018-12-04T15:43:35.747Z,71.90
2018-12-04T15:46:01.940Z,81.03
2018-12-04T15:48:28.119Z,58.80
2018-12-04T15:50:59.860Z,52.50
2018-12-04T15:53:22.556Z,66.27
2018-12-04T15:55:48.945Z,80.00
2018-12-04T15:58:15.233Z,58.07
2018-12-04T16:00:41.538Z,79.53
2018-12-04T16:03:07.718Z,67.53
2018-12-04T16:05:33.959Z,62.97
2018-12-04T16:08:00.136Z,72.20
2018-12-04T16:10:26.296Z,57.70
2018-12-04T16:12:52.506Z,54.27
2018-12-04T16:15:18.702Z,72.23
2018-12-04T16:17:44.895Z,74.97
2018-12-04T16:20:11.137Z,83.77
2018-12-04T16:22:37.320Z,88.57
2018-12-04T16:25:05.090Z,99.03
2018-12-04T16:27:31.285Z,108.83
2018-12-04T16:29:57.482Z,93.37
2018-12-04T16:32:23.687Z,117.03
2018-12-04T16:34:49.874Z,109.37
2018-12-04T16:37:16.052Z,118.73
2018-12-04T16:39:42.218Z,133.13
2018-12-04T16:42:08.537Z,143.93
2018-12-04T16:44:34.705Z,150.57
2018-12-04T16:47:00.883Z,163.03
2018-12-04T16:49:27.101Z,171.87
2018-12-04T16:51:53.255Z,171.87
2018-12-04T16:54:19.422Z,192.60
2018-12-04T16:56:45.670Z,170.07
2018-12-04T16:59:11.876Z,175.30
2018-12-04T17:01:38.054Z,213.60
2018-12-04T17:04:04.253Z,225.10
2018-12-04T17:06:30.465Z,220.50
2018-12-04T17:08:56.642Z,239.17
2018-12-04T17:11:22.858Z,209.63
2018-12-04T17:13:49.025Z,235.00
2018-12-04T17:16:15.331Z,244.47
2018-12-04T17:18:41.535Z,212.10
2018-12-04T17:21:07.696Z,227.37
2018-12-04T17:23:33.918Z,257.03
2018-12-04T17:26:00.162Z,216.03
2018-12-04T17:28:26.307Z,227.90
2018-12-04T17:30:52.478Z,182.13
2018-12-04T17:33:18.694Z,178.83
2018-12-04T17:35:44.874Z,198.47
2018-12-04T17:38:11.057Z,217.23
2018-12-04T17:40:37.262Z,202.83
2018-12-04T17:43:03.481Z,152.27
2018-12-04T17:45:29.656Z,151.73
2018-12-04T17:50:20.894Z,127.90
2018-12-04T17:52:47.051Z,126.60
2018-12-04T17:55:13.221Z,124.33
2018-12-04T17:57:39.449Z,122.07
2018-12-04T18:00:07.542Z,112.13
2018-12-04T18:02:33.699Z,117.30
2018-12-04T18:04:59.913Z,142.67
2018-12-04T18:07:26.074Z,157.50
2018-12-04T18:09:52.294Z,136.23
2018-12-04T18:12:18.489Z,187.30
2018-12-04T18:14:44.694Z,331.73
2018-12-04T18:17:10.857Z,283.47
2018-12-04T18:19:37.068Z,270.73
2018-12-04T18:22:03.298Z,240.47
2018-12-04T18:24:30.365Z,265.57
2018-12-04T18:26:56.586Z,232.67
2018-12-04T18:29:22.734Z,256.23
2018-12-04T18:31:48.919Z,296.30
2018-12-04T18:34:15.213Z,307.57
2018-12-04T18:36:41.366Z,303.10
2018-12-04T18:39:07.677Z,327.67
2018-12-04T18:41:33.873Z,272.73
2018-12-04T18:44:00.583Z,246.23
2018-12-04T18:46:26.725Z,212.97
2018-12-04T18:48:53.037Z,274.97
2018-12-04T18:51:19.194Z,199.33
2018-12-04T18:53:45.350Z,166.27
2018-12-04T18:56:11.550Z,155.57
2018-12-04T18:58:37.730Z,169.47
2018-12-04T19:01:03.931Z,180.63
2018-12-04T19:03:30.261Z,194.00
2018-12-04T19:05:56.438Z,198.53
2018-12-04T19:11:16.114Z,270.70
2018-12-04T19:13:42.522Z,246.90
2018-12-04T19:16:08.781Z,190.20
2018-12-04T19:18:34.934Z,146.97
2018-12-04T19:21:01.151Z,144.70
2018-12-04T19:23:27.321Z,142.97
2018-12-04T19:25:53.542Z,122.03
2018-12-04T19:28:19.745Z,119.37
2018-12-04T19:30:45.918Z,121.70
2018-12-04T19:33:12.074Z,119.33
2018-12-04T19:35:38.249Z,123.70
2018-12-04T19:38:04.412Z,119.00
2018-12-04T19:40:30.620Z,246.80
2018-12-04T19:42:56.815Z,139.53
2018-12-04T19:45:22.978Z,164.87
2018-12-04T19:47:49.432Z,177.47
2018-12-04T19:50:15.621Z,179.70
2018-12-04T19:52:41.782Z,191.57
2018-12-04T19:55:07.983Z,263.47
2018-12-04T19:57:34.153Z,250.63
2018-12-04T20:00:00.340Z,221.00
2018-12-04T20:02:26.562Z,180.17
2018-12-04T20:04:53.169Z,197.60
2018-12-04T20:07:19.521Z,179.50
2018-12-04T20:09:45.814Z,220.80
2018-12-04T20:12:12.422Z,184.40
2018-12-04T20:14:38.597Z,251.43
2018-12-04T20:17:05.173Z,182.10
2018-12-04T20:19:31.442Z,171.47
2018-12-04T20:21:57.619Z,169.57
2018-12-04T20:24:23.790Z,178.57
2018-12-04T20:26:50.002Z,171.80
2018-12-04T20:29:16.177Z,172.50
2018-12-04T20:31:42.334Z,156.33
2018-12-04T20:34:08.542Z,150.90
2018-12-04T20:36:34.719Z,181.10
2018-12-04T20:39:01.240Z,167.83
2018-12-04T20:41:27.453Z,164.63
2018-12-04T20:43:53.617Z,146.53
2018-12-04T20:46:19.778Z,136.43
2018-12-04T20:48:45.982Z,133.23
2018-12-04T20:51:12.153Z,140.43
2018-12-04T20:53:38.317Z,152.20
2018-12-04T20:56:04.498Z,139.17
2018-12-04T20:58:30.647Z,120.30
2018-12-04T21:00:56.797Z,104.10
2018-12-04T21:03:23.019Z,104.93
2018-12-04T21:05:49.190Z,114.17
2018-12-04T21:08:15.362Z,104.57
2018-12-04T21:10:41.571Z,130.77
2018-12-04T21:13:14.285Z,140.27
2018-12-04T21:15:35.944Z,156.33
2018-12-04T21:18:02.137Z,192.37
2018-12-04T21:20:28.362Z,171.30
2018-12-04T21:22:54.630Z,169.03
2018-12-04T21:25:20.822Z,185.83
2018-12-04T21:27:53.073Z,169.73
2018-12-04T21:30:25.179Z,154.03
2018-12-04T21:32:57.225Z,177.80
2018-12-04T21:35:29.464Z,160.87
2018-12-04T21:41:10.638Z,141.00
2018-12-04T21:43:42.727Z,143.67
2018-12-04T21:46:15.081Z,142.67
2018-12-04T21:48:41.256Z,143.20
2018-12-04T21:51:07.453Z,152.17
2018-12-04T21:53:33.650Z,146.13
2018-12-04T21:55:59.807Z,123.90
2018-12-04T21:58:25.962Z,86.77
2018-12-04T22:00:52.157Z,67.00
2018-12-04T22:03:18.300Z,80.03
2018-12-04T22:05:44.473Z,84.87
2018-12-04T22:08:10.685Z,66.80
2018-12-04T22:10:36.851Z,74.90
2018-12-04T22:13:03.054Z,78.20
2018-12-04T22:15:29.273Z,106.33
2018-12-04T22:17:55.455Z,102.70
2018-12-04T22:20:21.605Z,108.37
2018-12-04T22:22:47.798Z,119.07
2018-12-04T22:25:13.949Z,137.17
2018-12-04T22:27:40.133Z,150.87
2018-12-04T22:30:07.690Z,135.13
2018-12-04T22:32:33.859Z,123.20
2018-12-04T22:35:00.037Z,131.23
2018-12-04T22:37:26.223Z,121.90
2018-12-04T22:39:52.390Z,124.97
2018-12-04T22:42:18.541Z,108.80
2018-12-04T22:44:44.753Z,104.97
2018-12-04T22:47:10.929Z,101.77
2018-12-04T22:49:37.102Z,167.27
2018-12-04T22:52:03.326Z,104.67
2018-12-04T22:54:29.498Z,110.03
2018-12-04T22:56:55.657Z,118.27
2018-12-04T22:59:21.840Z,115.90
2018-12-04T23:01:48.130Z,112.23
2018-12-04T23:04:14.288Z,124.93
2018-12-04T23:06:40.524Z,111.00
2018-12-04T23:09:07.736Z,113.83
2018-12-04T23:11:33.934Z,111.73
2018-12-04T23:14:00.117Z,112.50
2018-12-04T23:16:26.550Z,111.17
2018-12-04T23:18:52.845Z,118.63
2018-12-04T23:21:19.066Z,111.53
2018-12-04T23:23:45.258Z,106.93
2018-12-04T23:26:11.429Z,97.73
2018-12-04T23:28:37.622Z,76.67
2018-12-04T23:31:03.817Z,63.43
2018-12-04T23:33:29.986Z,54.17
2018-12-04T23:35:56.192Z,54.73
2018-12-04T23:38:22.362Z,46.77
2018-12-04T23:40:48.534Z,41.73
2018-12-04T23:43:14.717Z,43.40
2018-12-04T23:45:40.872Z,39.13
2018-12-04T23:48:07.036Z,38.17
2018-12-04T23:50:33.218Z,40.83
2018-12-04T23:52:59.458Z,40.57
2018-12-04T23:55:25.682Z,37.43
2018-12-04T23:57:51.864Z,40.00
